sensor_id;sensor_type;location;lat;lon;timestamp;P1;durP1;ratioP1;P2;durP2;ratioP2
56233;SDS011;42141;53.240;6.580;2023-02-28T00:00:30;12.35;;;2.63;;
56233;SDS011;42141;53.240;6.580;2023-02-28T00:02:56;9.13;;;1.80;;
56233;SDS011;42141;53.240;6.580;2023-02-28T00:05:23;8.65;;;1.90;;
56233;SDS011;42141;53.240;6.580;2023-02-28T00:07:49;10.10;;;1.30;;
56233;SDS011;42141;53.240;6.580;2023-02-28T00:10:25;7.35;;;1.42;;
56233;SDS011;42141;53.240;6.580;2023-02-28T00:12:53;5.20;;;1.35;;
56233;SDS011;42141;53.240;6.580;2023-02-28T00:15:22;9.85;;;1.73;;
56233;SDS011;42141;53.240;6.580;2023-02-28T00:17:48;13.15;;;1.88;;
56233;SDS011;42141;53.240;6.580;2023-02-28T00:20:14;7.93;;;1.88;;
56233;SDS011;42141;53.240;6.580;2023-02-28T00:22:45;5.57;;;1.95;;
56233;SDS011;42141;53.240;6.580;2023-02-28T00:25:13;7.18;;;1.60;;
56233;SDS011;42141;53.240;6.580;2023-02-28T00:27:41;8.20;;;2.03;;
56233;SDS011;42141;53.240;6.580;2023-02-28T00:30:09;9.07;;;2.10;;
56233;SDS011;42141;53.240;6.580;2023-02-28T00:32:40;4.93;;;1.58;;
56233;SDS011;42141;53.240;6.580;2023-02-28T00:35:06;7.80;;;2.05;;
56233;SDS011;42141;53.240;6.580;2023-02-28T00:37:33;4.15;;;2.20;;
56233;SDS011;42141;53.240;6.580;2023-02-28T00:39:59;9.32;;;2.38;;
56233;SDS011;42141;53.240;6.580;2023-02-28T00:42:25;7.55;;;2.42;;
56233;SDS011;42141;53.240;6.580;2023-02-28T00:44:50;14.80;;;3.05;;
56233;SDS011;42141;53.240;6.580;2023-02-28T00:47:16;11.82;;;1.88;;
56233;SDS011;42141;53.240;6.580;2023-02-28T00:49:42;9.38;;;2.15;;
56233;SDS011;42141;53.240;6.580;2023-02-28T00:52:07;8.50;;;2.30;;
56233;SDS011;42141;53.240;6.580;2023-02-28T00:54:33;6.57;;;1.67;;
56233;SDS011;42141;53.240;6.580;2023-02-28T00:56:59;6.68;;;1.50;;
56233;SDS011;42141;53.240;6.580;2023-02-28T00:59:25;9.45;;;2.28;;
56233;SDS011;42141;53.240;6.580;2023-02-28T01:01:50;11.98;;;2.30;;
56233;SDS011;42141;53.240;6.580;2023-02-28T01:04:16;10.30;;;1.83;;
56233;SDS011;42141;53.240;6.580;2023-02-28T01:06:42;7.70;;;1.67;;
56233;SDS011;42141;53.240;6.580;2023-02-28T01:09:08;9.43;;;2.22;;
56233;SDS011;42141;53.240;6.580;2023-02-28T01:11:34;11.80;;;2.92;;
56233;SDS011;42141;53.240;6.580;2023-02-28T01:14:00;8.18;;;3.15;;
56233;SDS011;42141;53.240;6.580;2023-02-28T01:16:27;9.77;;;2.70;;
56233;SDS011;42141;53.240;6.580;2023-02-28T01:18:52;5.15;;;1.70;;
56233;SDS011;42141;53.240;6.580;2023-02-28T01:21:19;8.40;;;2.17;;
56233;SDS011;42141;53.240;6.580;2023-02-28T01:23:46;7.03;;;1.50;;
56233;SDS011;42141;53.240;6.580;2023-02-28T01:26:16;7.50;;;1.73;;
56233;SDS011;42141;53.240;6.580;2023-02-28T01:28:42;6.13;;;1.63;;
56233;SDS011;42141;53.240;6.580;2023-02-28T01:31:08;6.38;;;1.48;;
56233;SDS011;42141;53.240;6.580;2023-02-28T01:33:34;7.00;;;1.98;;
56233;SDS011;42141;53.240;6.580;2023-02-28T01:36:04;6.28;;;1.50;;
56233;SDS011;42141;53.240;6.580;2023-02-28T01:38:41;8.40;;;1.55;;
56233;SDS011;42141;53.240;6.580;2023-02-28T01:41:07;11.73;;;1.58;;
56233;SDS011;42141;53.240;6.580;2023-02-28T01:46:09;8.00;;;2.55;;
56233;SDS011;42141;53.240;6.580;2023-02-28T01:48:37;13.05;;;1.92;;
56233;SDS011;42141;53.240;6.580;2023-02-28T01:51:11;3.13;;;1.55;;
56233;SDS011;42141;53.240;6.580;2023-02-28T01:53:45;8.93;;;1.88;;
56233;SDS011;42141;53.240;6.580;2023-02-28T01:56:15;10.45;;;1.52;;
56233;SDS011;42141;53.240;6.580;2023-02-28T01:58:49;6.97;;;1.95;;
56233;SDS011;42141;53.240;6.580;2023-02-28T02:01:17;6.35;;;0.93;;
56233;SDS011;42141;53.240;6.580;2023-02-28T02:03:51;13.02;;;2.67;;
56233;SDS011;42141;53.240;6.580;2023-02-28T02:06:21;8.93;;;1.50;;
56233;SDS011;42141;53.240;6.580;2023-02-28T02:08:49;4.90;;;0.82;;
56233;SDS011;42141;53.240;6.580;2023-02-28T02:11:15;3.75;;;1.55;;
56233;SDS011;42141;53.240;6.580;2023-02-28T02:14:03;13.10;;;2.13;;
56233;SDS011;42141;53.240;6.580;2023-02-28T02:17:09;10.02;;;3.42;;
56233;SDS011;42141;53.240;6.580;2023-02-28T02:31:47;8.10;;;1.45;;
56233;SDS011;42141;53.240;6.580;2023-02-28T02:36:45;12.10;;;1.40;;
56233;SDS011;42141;53.240;6.580;2023-02-28T02:39:31;6.30;;;1.55;;
56233;SDS011;42141;53.240;6.580;2023-02-28T02:42:02;5.30;;;1.05;;
56233;SDS011;42141;53.240;6.580;2023-02-28T02:44:39;10.30;;;1.30;;
56233;SDS011;42141;53.240;6.580;2023-02-28T02:47:15;9.55;;;1.50;;
56233;SDS011;42141;53.240;6.580;2023-02-28T02:49:48;9.60;;;1.55;;
56233;SDS011;42141;53.240;6.580;2023-02-28T02:52:17;5.97;;;2.00;;
56233;SDS011;42141;53.240;6.580;2023-02-28T02:54:47;5.35;;;1.33;;
56233;SDS011;42141;53.240;6.580;2023-02-28T02:57:17;8.27;;;1.63;;
56233;SDS011;42141;53.240;6.580;2023-02-28T02:59:58;7.93;;;2.75;;
56233;SDS011;42141;53.240;6.580;2023-02-28T03:02:26;6.97;;;1.80;;
56233;SDS011;42141;53.240;6.580;2023-02-28T03:05:00;6.35;;;1.48;;
56233;SDS011;42141;53.240;6.580;2023-02-28T03:07:31;6.35;;;1.52;;
56233;SDS011;42141;53.240;6.580;2023-02-28T03:09:57;8.90;;;1.65;;
56233;SDS011;42141;53.240;6.580;2023-02-28T03:12:33;12.73;;;3.45;;
56233;SDS011;42141;53.240;6.580;2023-02-28T03:26:29;6.40;;;1.30;;
56233;SDS011;42141;53.240;6.580;2023-02-28T03:32:09;8.65;;;4.15;;
56233;SDS011;42141;53.240;6.580;2023-02-28T03:34:42;12.52;;;4.63;;
56233;SDS011;42141;53.240;6.580;2023-02-28T03:37:42;11.60;;;4.22;;
56233;SDS011;42141;53.240;6.580;2023-02-28T03:40:14;12.55;;;4.78;;
56233;SDS011;42141;53.240;6.580;2023-02-28T03:42:52;9.90;;;5.28;;
56233;SDS011;42141;53.240;6.580;2023-02-28T03:45:25;13.52;;;5.43;;
56233;SDS011;42141;53.240;6.580;2023-02-28T03:47:58;10.82;;;5.63;;
56233;SDS011;42141;53.240;6.580;2023-02-28T03:50:39;11.73;;;5.45;;
56233;SDS011;42141;53.240;6.580;2023-02-28T03:53:12;13.27;;;6.68;;
56233;SDS011;42141;53.240;6.580;2023-02-28T03:55:45;10.57;;;5.78;;
56233;SDS011;42141;53.240;6.580;2023-02-28T03:58:40;10.45;;;6.07;;
56233;SDS011;42141;53.240;6.580;2023-02-28T04:01:16;12.38;;;5.38;;
56233;SDS011;42141;53.240;6.580;2023-02-28T04:03:49;12.50;;;6.10;;
56233;SDS011;42141;53.240;6.580;2023-02-28T04:06:16;8.68;;;5.65;;
56233;SDS011;42141;53.240;6.580;2023-02-28T04:08:45;7.88;;;5.68;;
56233;SDS011;42141;53.240;6.580;2023-02-28T04:11:15;8.35;;;4.95;;
56233;SDS011;42141;53.240;6.580;2023-02-28T04:13:45;9.60;;;5.15;;
56233;SDS011;42141;53.240;6.580;2023-02-28T04:16:11;10.18;;;6.13;;
56233;SDS011;42141;53.240;6.580;2023-02-28T04:18:40;11.68;;;5.60;;
56233;SDS011;42141;53.240;6.580;2023-02-28T04:21:08;12.15;;;6.25;;
56233;SDS011;42141;53.240;6.580;2023-02-28T04:23:34;12.05;;;5.90;;
56233;SDS011;42141;53.240;6.580;2023-02-28T04:26:01;10.07;;;5.30;;
56233;SDS011;42141;53.240;6.580;2023-02-28T04:28:26;8.80;;;5.38;;
56233;SDS011;42141;53.240;6.580;2023-02-28T04:30:56;11.65;;;5.05;;
56233;SDS011;42141;53.240;6.580;2023-02-28T04:33:23;10.80;;;5.55;;
56233;SDS011;42141;53.240;6.580;2023-02-28T04:35:57;12.15;;;5.07;;
56233;SDS011;42141;53.240;6.580;2023-02-28T04:38:24;7.97;;;4.80;;
56233;SDS011;42141;53.240;6.580;2023-02-28T04:40:50;7.40;;;4.85;;
56233;SDS011;42141;53.240;6.580;2023-02-28T04:43:15;5.72;;;4.30;;
56233;SDS011;42141;53.240;6.580;2023-02-28T04:45:41;10.27;;;4.47;;
56233;SDS011;42141;53.240;6.580;2023-02-28T04:48:07;5.93;;;3.85;;
56233;SDS011;42141;53.240;6.580;2023-02-28T04:50:33;6.95;;;3.90;;
56233;SDS011;42141;53.240;6.580;2023-02-28T04:52:58;5.30;;;4.00;;
56233;SDS011;42141;53.240;6.580;2023-02-28T04:55:24;6.15;;;3.53;;
56233;SDS011;42141;53.240;6.580;2023-02-28T04:57:50;5.00;;;3.45;;
56233;SDS011;42141;53.240;6.580;2023-02-28T05:00:15;7.32;;;3.55;;
56233;SDS011;42141;53.240;6.580;2023-02-28T05:02:42;5.32;;;3.40;;
56233;SDS011;42141;53.240;6.580;2023-02-28T05:05:08;3.85;;;2.90;;
56233;SDS011;42141;53.240;6.580;2023-02-28T05:07:34;4.30;;;3.10;;
56233;SDS011;42141;53.240;6.580;2023-02-28T05:09:59;5.00;;;3.83;;
56233;SDS011;42141;53.240;6.580;2023-02-28T05:12:25;7.00;;;4.15;;
56233;SDS011;42141;53.240;6.580;2023-02-28T05:14:51;5.40;;;3.60;;
56233;SDS011;42141;53.240;6.580;2023-02-28T05:17:16;6.35;;;3.35;;
56233;SDS011;42141;53.240;6.580;2023-02-28T05:19:42;5.40;;;3.72;;
56233;SDS011;42141;53.240;6.580;2023-02-28T05:22:12;3.78;;;3.00;;
56233;SDS011;42141;53.240;6.580;2023-02-28T05:24:41;6.88;;;3.58;;
56233;SDS011;42141;53.240;6.580;2023-02-28T05:27:07;8.05;;;3.90;;
56233;SDS011;42141;53.240;6.580;2023-02-28T05:29:34;6.55;;;3.72;;
56233;SDS011;42141;53.240;6.580;2023-02-28T05:32:07;4.43;;;3.08;;
56233;SDS011;42141;53.240;6.580;2023-02-28T05:34:37;6.32;;;3.38;;
56233;SDS011;42141;53.240;6.580;2023-02-28T05:37:04;5.57;;;3.33;;
56233;SDS011;42141;53.240;6.580;2023-02-28T05:39:30;7.05;;;4.18;;
56233;SDS011;42141;53.240;6.580;2023-02-28T05:41:56;5.53;;;3.75;;
56233;SDS011;42141;53.240;6.580;2023-02-28T05:44:23;4.68;;;3.72;;
56233;SDS011;42141;53.240;6.580;2023-02-28T05:46:49;5.65;;;3.97;;
56233;SDS011;42141;53.240;6.580;2023-02-28T05:49:15;7.03;;;4.63;;
56233;SDS011;42141;53.240;6.580;2023-02-28T05:51:40;6.57;;;4.35;;
56233;SDS011;42141;53.240;6.580;2023-02-28T05:54:06;6.72;;;4.30;;
56233;SDS011;42141;53.240;6.580;2023-02-28T05:56:33;7.90;;;4.43;;
56233;SDS011;42141;53.240;6.580;2023-02-28T05:59:04;6.63;;;4.35;;
56233;SDS011;42141;53.240;6.580;2023-02-28T06:04:00;11.40;;;4.55;;
56233;SDS011;42141;53.240;6.580;2023-02-28T06:06:27;9.18;;;5.00;;
56233;SDS011;42141;53.240;6.580;2023-02-28T06:08:54;8.25;;;5.05;;
56233;SDS011;42141;53.240;6.580;2023-02-28T06:11:20;9.63;;;5.25;;
56233;SDS011;42141;53.240;6.580;2023-02-28T06:13:53;7.68;;;4.95;;
56233;SDS011;42141;53.240;6.580;2023-02-28T06:16:20;6.45;;;4.55;;
56233;SDS011;42141;53.240;6.580;2023-02-28T06:18:46;7.60;;;4.90;;
56233;SDS011;42141;53.240;6.580;2023-02-28T06:21:12;9.93;;;5.80;;
56233;SDS011;42141;53.240;6.580;2023-02-28T06:23:38;9.82;;;5.88;;
56233;SDS011;42141;53.240;6.580;2023-02-28T06:26:04;9.52;;;5.35;;
56233;SDS011;42141;53.240;6.580;2023-02-28T06:28:30;7.05;;;4.88;;
56233;SDS011;42141;53.240;6.580;2023-02-28T06:30:56;16.40;;;6.90;;
56233;SDS011;42141;53.240;6.580;2023-02-28T06:33:21;10.07;;;5.88;;
56233;SDS011;42141;53.240;6.580;2023-02-28T06:35:49;7.43;;;5.63;;
56233;SDS011;42141;53.240;6.580;2023-02-28T06:38:16;8.93;;;6.32;;
56233;SDS011;42141;53.240;6.580;2023-02-28T06:40:43;9.90;;;6.38;;
56233;SDS011;42141;53.240;6.580;2023-02-28T06:43:09;11.95;;;6.18;;
56233;SDS011;42141;53.240;6.580;2023-02-28T06:45:41;10.30;;;5.68;;
56233;SDS011;42141;53.240;6.580;2023-02-28T06:48:08;12.65;;;5.43;;
56233;SDS011;42141;53.240;6.580;2023-02-28T06:50:35;10.65;;;5.80;;
56233;SDS011;42141;53.240;6.580;2023-02-28T06:53:01;8.90;;;5.22;;
56233;SDS011;42141;53.240;6.580;2023-02-28T06:55:26;14.45;;;6.45;;
56233;SDS011;42141;53.240;6.580;2023-02-28T06:57:52;22.35;;;7.45;;
56233;SDS011;42141;53.240;6.580;2023-02-28T07:00:19;9.80;;;6.72;;
56233;SDS011;42141;53.240;6.580;2023-02-28T07:02:45;9.68;;;6.47;;
56233;SDS011;42141;53.240;6.580;2023-02-28T07:05:12;11.18;;;6.88;;
56233;SDS011;42141;53.240;6.580;2023-02-28T07:07:38;11.10;;;6.80;;
56233;SDS011;42141;53.240;6.580;2023-02-28T07:10:05;10.68;;;7.22;;
56233;SDS011;42141;53.240;6.580;2023-02-28T07:12:32;10.82;;;6.70;;
56233;SDS011;42141;53.240;6.580;2023-02-28T07:14:57;11.00;;;7.50;;
56233;SDS011;42141;53.240;6.580;2023-02-28T07:17:23;19.23;;;7.88;;
56233;SDS011;42141;53.240;6.580;2023-02-28T07:19:49;9.80;;;6.85;;
56233;SDS011;42141;53.240;6.580;2023-02-28T07:22:14;12.13;;;7.88;;
56233;SDS011;42141;53.240;6.580;2023-02-28T07:24:40;13.13;;;7.38;;
56233;SDS011;42141;53.240;6.580;2023-02-28T07:27:06;13.93;;;7.22;;
56233;SDS011;42141;53.240;6.580;2023-02-28T07:29:31;12.73;;;7.78;;
56233;SDS011;42141;53.240;6.580;2023-02-28T07:31:57;12.43;;;7.43;;
56233;SDS011;42141;53.240;6.580;2023-02-28T07:34:23;13.45;;;8.30;;
56233;SDS011;42141;53.240;6.580;2023-02-28T07:36:52;10.32;;;7.07;;
56233;SDS011;42141;53.240;6.580;2023-02-28T07:39:21;14.43;;;8.10;;
56233;SDS011;42141;53.240;6.580;2023-02-28T07:41:47;12.50;;;7.38;;
56233;SDS011;42141;53.240;6.580;2023-02-28T07:44:13;15.00;;;8.10;;
56233;SDS011;42141;53.240;6.580;2023-02-28T07:46:39;13.23;;;7.65;;
56233;SDS011;42141;53.240;6.580;2023-02-28T07:49:05;10.60;;;7.28;;
56233;SDS011;42141;53.240;6.580;2023-02-28T07:51:31;13.80;;;8.40;;
56233;SDS011;42141;53.240;6.580;2023-02-28T07:53:57;13.82;;;7.90;;
56233;SDS011;42141;53.240;6.580;2023-02-28T07:56:22;14.90;;;8.07;;
56233;SDS011;42141;53.240;6.580;2023-02-28T07:58:48;13.93;;;7.85;;
56233;SDS011;42141;53.240;6.580;2023-02-28T08:01:14;11.20;;;7.57;;
56233;SDS011;42141;53.240;6.580;2023-02-28T08:03:40;16.08;;;8.38;;
56233;SDS011;42141;53.240;6.580;2023-02-28T08:06:07;17.30;;;8.57;;
56233;SDS011;42141;53.240;6.580;2023-02-28T08:08:39;16.63;;;8.02;;
56233;SDS011;42141;53.240;6.580;2023-02-28T08:11:05;15.02;;;8.18;;
56233;SDS011;42141;53.240;6.580;2023-02-28T08:13:31;10.63;;;7.80;;
56233;SDS011;42141;53.240;6.580;2023-02-28T08:15:57;12.02;;;7.72;;
56233;SDS011;42141;53.240;6.580;2023-02-28T08:18:22;11.68;;;7.70;;
56233;SDS011;42141;53.240;6.580;2023-02-28T08:20:49;14.13;;;7.80;;
56233;SDS011;42141;53.240;6.580;2023-02-28T08:23:14;17.40;;;7.90;;
56233;SDS011;42141;53.240;6.580;2023-02-28T08:25:40;11.88;;;6.85;;
56233;SDS011;42141;53.240;6.580;2023-02-28T08:28:06;12.40;;;7.30;;
56233;SDS011;42141;53.240;6.580;2023-02-28T08:30:32;13.82;;;8.05;;
56233;SDS011;42141;53.240;6.580;2023-02-28T08:32:57;11.48;;;7.18;;
56233;SDS011;42141;53.240;6.580;2023-02-28T08:35:23;10.30;;;7.50;;
56233;SDS011;42141;53.240;6.580;2023-02-28T08:37:49;12.38;;;7.93;;
56233;SDS011;42141;53.240;6.580;2023-02-28T08:40:15;12.75;;;8.27;;
56233;SDS011;42141;53.240;6.580;2023-02-28T08:42:46;13.50;;;7.30;;
56233;SDS011;42141;53.240;6.580;2023-02-28T08:45:15;11.50;;;7.50;;
56233;SDS011;42141;53.240;6.580;2023-02-28T08:47:41;10.20;;;6.88;;
56233;SDS011;42141;53.240;6.580;2023-02-28T08:50:09;11.30;;;7.50;;
56233;SDS011;42141;53.240;6.580;2023-02-28T08:52:35;13.70;;;8.00;;
56233;SDS011;42141;53.240;6.580;2023-02-28T08:55:02;11.20;;;7.05;;
56233;SDS011;42141;53.240;6.580;2023-02-28T08:57:27;12.68;;;7.70;;
56233;SDS011;42141;53.240;6.580;2023-02-28T08:59:53;16.30;;;7.85;;
56233;SDS011;42141;53.240;6.580;2023-02-28T09:02:19;13.25;;;7.13;;
56233;SDS011;42141;53.240;6.580;2023-02-28T09:04:45;13.27;;;7.13;;
56233;SDS011;42141;53.240;6.580;2023-02-28T09:07:11;12.52;;;6.55;;
56233;SDS011;42141;53.240;6.580;2023-02-28T09:09:37;18.77;;;7.55;;
56233;SDS011;42141;53.240;6.580;2023-02-28T09:12:03;10.88;;;6.63;;
56233;SDS011;42141;53.240;6.580;2023-02-28T09:14:30;12.73;;;7.43;;
56233;SDS011;42141;53.240;6.580;2023-02-28T09:16:56;13.57;;;6.82;;
56233;SDS011;42141;53.240;6.580;2023-02-28T09:19:21;9.55;;;6.20;;
56233;SDS011;42141;53.240;6.580;2023-02-28T09:21:47;11.55;;;6.68;;
56233;SDS011;42141;53.240;6.580;2023-02-28T09:24:13;13.38;;;6.45;;
56233;SDS011;42141;53.240;6.580;2023-02-28T09:26:40;10.43;;;6.78;;
56233;SDS011;42141;53.240;6.580;2023-02-28T09:29:06;11.43;;;6.13;;
56233;SDS011;42141;53.240;6.580;2023-02-28T09:31:31;12.10;;;6.07;;
56233;SDS011;42141;53.240;6.580;2023-02-28T09:33:57;13.10;;;7.25;;
56233;SDS011;42141;53.240;6.580;2023-02-28T09:36:25;10.18;;;6.57;;
56233;SDS011;42141;53.240;6.580;2023-02-28T09:38:51;11.45;;;7.18;;
56233;SDS011;42141;53.240;6.580;2023-02-28T09:41:19;14.13;;;7.25;;
56233;SDS011;42141;53.240;6.580;2023-02-28T09:43:49;11.13;;;7.18;;
56233;SDS011;42141;53.240;6.580;2023-02-28T09:46:32;8.93;;;5.70;;
56233;SDS011;42141;53.240;6.580;2023-02-28T09:49:17;13.77;;;6.20;;
56233;SDS011;42141;53.240;6.580;2023-02-28T09:51:56;12.07;;;6.78;;
56233;SDS011;42141;53.240;6.580;2023-02-28T09:54:27;12.95;;;7.30;;
56233;SDS011;42141;53.240;6.580;2023-02-28T09:57:01;11.65;;;6.70;;
56233;SDS011;42141;53.240;6.580;2023-02-28T10:04:58;9.70;;;5.00;;
56233;SDS011;42141;53.240;6.580;2023-02-28T10:15:49;10.50;;;6.43;;
56233;SDS011;42141;53.240;6.580;2023-02-28T10:23:45;9.55;;;5.80;;
56233;SDS011;42141;53.240;6.580;2023-02-28T10:26:15;9.75;;;6.47;;
56233;SDS011;42141;53.240;6.580;2023-02-28T10:28:42;11.57;;;6.25;;
56233;SDS011;42141;53.240;6.580;2023-02-28T10:31:13;9.68;;;5.47;;
56233;SDS011;42141;53.240;6.580;2023-02-28T10:33:42;9.13;;;5.00;;
56233;SDS011;42141;53.240;6.580;2023-02-28T10:36:10;10.20;;;5.60;;
56233;SDS011;42141;53.240;6.580;2023-02-28T10:38:41;8.95;;;4.05;;
56233;SDS011;42141;53.240;6.580;2023-02-28T10:41:09;10.57;;;5.43;;
56233;SDS011;42141;53.240;6.580;2023-02-28T10:43:38;8.60;;;5.03;;
56233;SDS011;42141;53.240;6.580;2023-02-28T10:48:38;8.70;;;4.47;;
56233;SDS011;42141;53.240;6.580;2023-02-28T10:51:15;10.40;;;4.30;;
56233;SDS011;42141;53.240;6.580;2023-02-28T10:59:00;6.13;;;3.40;;
56233;SDS011;42141;53.240;6.580;2023-02-28T11:01:45;10.18;;;4.47;;
56233;SDS011;42141;53.240;6.580;2023-02-28T11:09:51;7.97;;;4.07;;
56233;SDS011;42141;53.240;6.580;2023-02-28T11:12:23;7.13;;;3.92;;
56233;SDS011;42141;53.240;6.580;2023-02-28T11:14:55;7.45;;;3.58;;
56233;SDS011;42141;53.240;6.580;2023-02-28T11:17:26;6.25;;;3.65;;
56233;SDS011;42141;53.240;6.580;2023-02-28T11:19:54;5.88;;;3.85;;
56233;SDS011;42141;53.240;6.580;2023-02-28T11:22:24;7.25;;;3.38;;
56233;SDS011;42141;53.240;6.580;2023-02-28T11:24:54;7.53;;;3.13;;
56233;SDS011;42141;53.240;6.580;2023-02-28T11:29:59;8.18;;;3.22;;
56233;SDS011;42141;53.240;6.580;2023-02-28T11:32:29;5.50;;;2.92;;
56233;SDS011;42141;53.240;6.580;2023-02-28T11:35:00;12.27;;;3.28;;
56233;SDS011;42141;53.240;6.580;2023-02-28T11:37:35;4.25;;;2.65;;
56233;SDS011;42141;53.240;6.580;2023-02-28T11:40:02;8.23;;;2.72;;
56233;SDS011;42141;53.240;6.580;2023-02-28T11:50:57;6.60;;;3.38;;
56233;SDS011;42141;53.240;6.580;2023-02-28T11:53:42;5.45;;;2.92;;
56233;SDS011;42141;53.240;6.580;2023-02-28T12:15:28;6.68;;;3.83;;
56233;SDS011;42141;53.240;6.580;2023-02-28T12:18:07;6.82;;;4.00;;
56233;SDS011;42141;53.240;6.580;2023-02-28T12:21:01;5.60;;;3.90;;
56233;SDS011;42141;53.240;6.580;2023-02-28T12:23:56;6.43;;;3.88;;
56233;SDS011;42141;53.240;6.580;2023-02-28T12:26:36;8.75;;;3.47;;
56233;SDS011;42141;53.240;6.580;2023-02-28T12:31:47;9.35;;;3.53;;
56233;SDS011;42141;53.240;6.580;2023-02-28T12:34:21;8.27;;;3.47;;
56233;SDS011;42141;53.240;6.580;2023-02-28T12:36:53;6.05;;;3.40;;
56233;SDS011;42141;53.240;6.580;2023-02-28T12:39:25;5.82;;;3.58;;
56233;SDS011;42141;53.240;6.580;2023-02-28T12:42:09;6.03;;;3.65;;
56233;SDS011;42141;53.240;6.580;2023-02-28T12:44:46;6.85;;;4.25;;
56233;SDS011;42141;53.240;6.580;2023-02-28T12:47:17;7.22;;;3.72;;
56233;SDS011;42141;53.240;6.580;2023-02-28T12:49:49;8.45;;;3.88;;
56233;SDS011;42141;53.240;6.580;2023-02-28T12:52:25;7.53;;;3.78;;
56233;SDS011;42141;53.240;6.580;2023-02-28T13:00:48;9.32;;;3.85;;
56233;SDS011;42141;53.240;6.580;2023-02-28T13:06:20;5.07;;;3.50;;
56233;SDS011;42141;53.240;6.580;2023-02-28T13:11:43;17.77;;;4.72;;
56233;SDS011;42141;53.240;6.580;2023-02-28T13:14:22;7.80;;;3.70;;
56233;SDS011;42141;53.240;6.580;2023-02-28T13:16:53;7.18;;;3.63;;
56233;SDS011;42141;53.240;6.580;2023-02-28T13:19:23;8.53;;;3.67;;
56233;SDS011;42141;53.240;6.580;2023-02-28T13:21:52;10.43;;;3.92;;
56233;SDS011;42141;53.240;6.580;2023-02-28T13:29:36;9.90;;;3.35;;
56233;SDS011;42141;53.240;6.580;2023-02-28T13:34:37;5.40;;;3.63;;
56233;SDS011;42141;53.240;6.580;2023-02-28T13:42:33;10.15;;;5.55;;
56233;SDS011;42141;53.240;6.580;2023-02-28T13:55:43;6.80;;;3.78;;
56233;SDS011;42141;53.240;6.580;2023-02-28T14:01:37;7.93;;;4.00;;
56233;SDS011;42141;53.240;6.580;2023-02-28T14:04:45;8.10;;;4.10;;
56233;SDS011;42141;53.240;6.580;2023-02-28T14:09:49;5.65;;;3.60;;
56233;SDS011;42141;53.240;6.580;2023-02-28T14:18:03;13.30;;;4.68;;
56233;SDS011;42141;53.240;6.580;2023-02-28T14:20:39;7.07;;;4.10;;
56233;SDS011;42141;53.240;6.580;2023-02-28T14:23:31;6.18;;;4.22;;
56233;SDS011;42141;53.240;6.580;2023-02-28T14:31:13;5.95;;;3.95;;
56233;SDS011;42141;53.240;6.580;2023-02-28T14:34:02;5.18;;;3.60;;
56233;SDS011;42141;53.240;6.580;2023-02-28T14:36:48;5.90;;;4.10;;
56233;SDS011;42141;53.240;6.580;2023-02-28T14:39:19;6.00;;;3.60;;
56233;SDS011;42141;53.240;6.580;2023-02-28T14:41:47;6.22;;;3.58;;
56233;SDS011;42141;53.240;6.580;2023-02-28T14:44:23;8.88;;;3.70;;
56233;SDS011;42141;53.240;6.580;2023-02-28T14:46:53;9.82;;;4.35;;
56233;SDS011;42141;53.240;6.580;2023-02-28T14:49:28;8.75;;;3.97;;
56233;SDS011;42141;53.240;6.580;2023-02-28T14:52:15;6.47;;;3.58;;
56233;SDS011;42141;53.240;6.580;2023-02-28T14:54:45;7.13;;;4.63;;
56233;SDS011;42141;53.240;6.580;2023-02-28T14:57:23;10.05;;;4.70;;
56233;SDS011;42141;53.240;6.580;2023-02-28T15:00:13;9.88;;;4.95;;
56233;SDS011;42141;53.240;6.580;2023-02-28T15:02:40;8.20;;;4.70;;
56233;SDS011;42141;53.240;6.580;2023-02-28T15:07:44;9.75;;;5.13;;
56233;SDS011;42141;53.240;6.580;2023-02-28T15:15:22;6.30;;;4.18;;
56233;SDS011;42141;53.240;6.580;2023-02-28T15:18:01;6.32;;;4.15;;
56233;SDS011;42141;53.240;6.580;2023-02-28T15:20:30;9.30;;;4.80;;
56233;SDS011;42141;53.240;6.580;2023-02-28T15:22:58;5.82;;;3.88;;
56233;SDS011;42141;53.240;6.580;2023-02-28T15:25:24;7.93;;;4.50;;
56233;SDS011;42141;53.240;6.580;2023-02-28T15:27:54;7.57;;;3.72;;
56233;SDS011;42141;53.240;6.580;2023-02-28T15:30:25;5.93;;;3.40;;
56233;SDS011;42141;53.240;6.580;2023-02-28T15:33:06;9.25;;;4.28;;
56233;SDS011;42141;53.240;6.580;2023-02-28T15:35:36;8.77;;;4.25;;
56233;SDS011;42141;53.240;6.580;2023-02-28T15:38:14;8.05;;;3.22;;
56233;SDS011;42141;53.240;6.580;2023-02-28T15:40:55;6.15;;;3.90;;
56233;SDS011;42141;53.240;6.580;2023-02-28T15:43:26;6.50;;;3.80;;
56233;SDS011;42141;53.240;6.580;2023-02-28T15:50:57;6.38;;;4.03;;
56233;SDS011;42141;53.240;6.580;2023-02-28T15:53:41;7.68;;;4.43;;
56233;SDS011;42141;53.240;6.580;2023-02-28T15:59:01;7.65;;;4.25;;
56233;SDS011;42141;53.240;6.580;2023-02-28T16:01:30;8.82;;;4.20;;
56233;SDS011;42141;53.240;6.580;2023-02-28T16:04:12;7.95;;;4.53;;
56233;SDS011;42141;53.240;6.580;2023-02-28T16:09:08;8.40;;;4.78;;
56233;SDS011;42141;53.240;6.580;2023-02-28T16:11:41;6.28;;;4.07;;
56233;SDS011;42141;53.240;6.580;2023-02-28T16:14:13;6.80;;;4.53;;
56233;SDS011;42141;53.240;6.580;2023-02-28T16:16:42;7.07;;;4.55;;
56233;SDS011;42141;53.240;6.580;2023-02-28T16:19:12;8.85;;;4.60;;
56233;SDS011;42141;53.240;6.580;2023-02-28T16:21:38;10.63;;;4.25;;
56233;SDS011;42141;53.240;6.580;2023-02-28T16:24:04;6.55;;;4.47;;
56233;SDS011;42141;53.240;6.580;2023-02-28T16:26:30;10.60;;;4.43;;
56233;SDS011;42141;53.240;6.580;2023-02-28T16:28:59;5.80;;;4.28;;
56233;SDS011;42141;53.240;6.580;2023-02-28T16:31:25;11.35;;;5.18;;
56233;SDS011;42141;53.240;6.580;2023-02-28T16:33:51;9.75;;;4.40;;
56233;SDS011;42141;53.240;6.580;2023-02-28T16:36:19;8.60;;;4.80;;
56233;SDS011;42141;53.240;6.580;2023-02-28T16:38:46;11.90;;;4.60;;
56233;SDS011;42141;53.240;6.580;2023-02-28T16:41:14;10.50;;;4.80;;
56233;SDS011;42141;53.240;6.580;2023-02-28T16:43:45;8.65;;;5.10;;
56233;SDS011;42141;53.240;6.580;2023-02-28T16:46:12;12.93;;;4.90;;
56233;SDS011;42141;53.240;6.580;2023-02-28T16:48:38;8.50;;;4.18;;
56233;SDS011;42141;53.240;6.580;2023-02-28T16:51:06;11.18;;;4.38;;
56233;SDS011;42141;53.240;6.580;2023-02-28T16:53:36;10.48;;;4.60;;
56233;SDS011;42141;53.240;6.580;2023-02-28T16:56:01;11.55;;;4.60;;
56233;SDS011;42141;53.240;6.580;2023-02-28T16:58:27;11.30;;;4.78;;
56233;SDS011;42141;53.240;6.580;2023-02-28T17:00:53;7.25;;;4.80;;
56233;SDS011;42141;53.240;6.580;2023-02-28T17:03:22;8.93;;;4.95;;
56233;SDS011;42141;53.240;6.580;2023-02-28T17:05:49;9.23;;;5.63;;
56233;SDS011;42141;53.240;6.580;2023-02-28T17:08:15;8.35;;;5.55;;
56233;SDS011;42141;53.240;6.580;2023-02-28T17:10:41;8.45;;;4.95;;
56233;SDS011;42141;53.240;6.580;2023-02-28T17:13:07;13.70;;;5.40;;
56233;SDS011;42141;53.240;6.580;2023-02-28T17:15:33;7.20;;;4.85;;
56233;SDS011;42141;53.240;6.580;2023-02-28T17:17:59;10.73;;;5.30;;
56233;SDS011;42141;53.240;6.580;2023-02-28T17:20:25;40.90;;;19.73;;
56233;SDS011;42141;53.240;6.580;2023-02-28T17:22:52;11.68;;;7.40;;
56233;SDS011;42141;53.240;6.580;2023-02-28T17:25:18;16.10;;;7.07;;
56233;SDS011;42141;53.240;6.580;2023-02-28T17:27:45;19.58;;;7.20;;
56233;SDS011;42141;53.240;6.580;2023-02-28T17:30:21;11.75;;;5.35;;
56233;SDS011;42141;53.240;6.580;2023-02-28T17:32:52;8.32;;;5.47;;
56233;SDS011;42141;53.240;6.580;2023-02-28T17:35:19;8.27;;;5.28;;
56233;SDS011;42141;53.240;6.580;2023-02-28T17:37:45;8.82;;;5.28;;
56233;SDS011;42141;53.240;6.580;2023-02-28T17:40:15;8.80;;;5.30;;
56233;SDS011;42141;53.240;6.580;2023-02-28T17:42:42;17.70;;;5.75;;
56233;SDS011;42141;53.240;6.580;2023-02-28T17:45:09;8.60;;;5.97;;
56233;SDS011;42141;53.240;6.580;2023-02-28T17:47:35;9.18;;;5.57;;